Time;durP1;ratioP1;P1;durP2;ratioP2;P2;SDS_P1;SDS_P2;PMS_P1;PMS_P2;Temp;Humidity;BMP_temperature;BMP_pressure;BME280_temperature;BME280_humidity;BME280_pressure;Samples;Min_cycle;Max_cycle;Signal;HPM_P1;HPM_P2
2023/08/27 00:00:16;;;;;;;13.50;5.43;;;;;;;;;;4953372;28;20231;-62
2023/08/27 00:03:04;;;;;;;7.93;4.47;;;;;;;;;;4953430;28;20211;-61
2023/08/27 00:05:31;;;;;;;8.90;5.25;;;;;;;;;;4952901;28;20256;-61
2023/08/27 00:07:58;;;;;;;7.22;5.35;;;;;;;;;;4953269;28;20238;-61
2023/08/27 00:10:25;;;;;;;12.15;5.30;;;;;;;;;;4952886;28;20298;-61
2023/08/27 00:12:52;;;;;;;7.25;4.95;;;;;;;;;;4952832;28;20235;-61
2023/08/27 00:15:19;;;;;;;13.48;4.97;;;;;;;;;;4952989;28;20218;-61
2023/08/27 00:17:47;;;;;;;8.27;5.55;;;;;;;;;;4954088;28;20199;-61
2023/08/27 00:20:14;;;;;;;16.40;6.00;;;;;;;;;;4953661;28;20203;-60
2023/08/27 00:22:42;;;;;;;10.80;5.45;;;;;;;;;;4955008;28;20211;-60
2023/08/27 00:25:09;;;;;;;10.07;5.22;;;;;;;;;;4954622;29;20203;-61
2023/08/27 00:27:36;;;;;;;9.00;5.25;;;;;;;;;;4955029;28;20215;-61
2023/08/27 00:30:04;;;;;;;7.85;5.25;;;;;;;;;;4969859;28;20605;-61
2023/08/27 00:32:33;;;;;;;11.13;6.13;;;;;;;;;;4954630;28;20208;-60
2023/08/27 00:35:03;;;;;;;10.90;5.10;;;;;;;;;;4954845;28;20214;-61
2023/08/27 00:37:31;;;;;;;10.18;5.65;;;;;;;;;;4955575;28;20207;-61
2023/08/27 00:39:58;;;;;;;9.30;5.40;;;;;;;;;;4956839;29;20306;-61
2023/08/27 00:42:26;;;;;;;14.32;5.78;;;;;;;;;;4957242;28;20207;-61
2023/08/27 00:44:53;;;;;;;12.48;5.63;;;;;;;;;;4957268;29;20214;-61
2023/08/27 00:47:21;;;;;;;8.57;5.63;;;;;;;;;;4958527;29;20211;-61
2023/08/27 00:49:49;;;;;;;11.30;5.50;;;;;;;;;;4909306;29;20215;-61
2023/08/27 00:52:18;;;;;;;9.80;5.47;;;;;;;;;;4956922;28;20211;-61
2023/08/27 00:54:46;;;;;;;9.25;5.72;;;;;;;;;;4956664;29;20223;-61
2023/08/27 00:57:14;;;;;;;11.98;6.57;;;;;;;;;;4988880;28;20204;-61
2023/08/27 00:59:41;;;;;;;9.60;6.47;;;;;;;;;;4956679;28;20212;-61
2023/08/27 01:02:09;;;;;;;11.10;6.38;;;;;;;;;;4940819;29;20752;-61
2023/08/27 01:04:36;;;;;;;13.27;6.03;;;;;;;;;;4956951;28;20270;-60
2023/08/27 01:07:11;;;;;;;10.65;6.47;;;;;;;;;;4956314;28;20218;-61
2023/08/27 01:09:46;;;;;;;12.10;6.32;;;;;;;;;;4940713;29;20190;-61
2023/08/27 01:12:22;;;;;;;8.00;5.75;;;;;;;;;;4956965;28;20262;-61
2023/08/27 01:14:51;;;;;;;10.10;6.32;;;;;;;;;;4988911;28;20230;-61
2023/08/27 01:17:21;;;;;;;11.90;7.13;;;;;;;;;;4940668;29;20616;-60
2023/08/27 01:19:49;;;;;;;14.05;6.90;;;;;;;;;;4956668;29;20204;-61
2023/08/27 01:22:17;;;;;;;11.57;6.32;;;;;;;;;;4956724;29;20681;-61
2023/08/27 01:24:44;;;;;;;9.98;6.10;;;;;;;;;;4956556;29;20207;-62
2023/08/27 01:27:19;;;;;;;8.95;5.57;;;;;;;;;;4956306;29;20207;-61
2023/08/27 01:29:55;;;;;;;8.65;5.32;;;;;;;;;;4957414;28;20233;-61
2023/08/27 01:32:28;;;;;;;8.65;5.43;;;;;;;;;;4957861;28;20203;-61
2023/08/27 01:34:56;;;;;;;9.55;5.97;;;;;;;;;;4956337;28;20692;-61
2023/08/27 01:37:24;;;;;;;10.48;6.05;;;;;;;;;;4956311;28;20230;-60
2023/08/27 01:40:08;;;;;;;12.07;6.40;;;;;;;;;;4956279;28;20770;-60
2023/08/27 01:42:35;;;;;;;15.32;7.28;;;;;;;;;;4957605;28;20207;-61
2023/08/27 01:45:04;;;;;;;13.15;6.60;;;;;;;;;;4957094;28;20219;-60
2023/08/27 01:47:31;;;;;;;10.27;6.70;;;;;;;;;;4971929;28;20274;-61
2023/08/27 01:49:58;;;;;;;12.82;7.10;;;;;;;;;;4957175;28;20203;-61
2023/08/27 01:52:26;;;;;;;17.05;7.68;;;;;;;;;;4957119;28;20208;-60
2023/08/27 01:54:53;;;;;;;11.40;7.32;;;;;;;;;;4956829;29;20223;-60
2023/08/27 01:57:20;;;;;;;17.63;7.55;;;;;;;;;;4955871;28;20214;-61
2023/08/27 01:59:47;;;;;;;11.07;7.25;;;;;;;;;;4955927;29;20286;-60
2023/08/27 02:02:14;;;;;;;11.13;7.70;;;;;;;;;;4971459;28;20566;-61
2023/08/27 02:04:42;;;;;;;11.52;7.55;;;;;;;;;;4956724;29;20211;-60
2023/08/27 02:07:09;;;;;;;12.80;7.35;;;;;;;;;;4971660;28;20262;-61
2023/08/27 02:09:37;;;;;;;15.63;7.40;;;;;;;;;;4971998;28;20212;-61
2023/08/27 02:12:04;;;;;;;12.88;7.25;;;;;;;;;;4955672;29;20218;-61
2023/08/27 02:14:31;;;;;;;15.88;7.95;;;;;;;;;;4955565;29;20305;-61
2023/08/27 02:16:59;;;;;;;12.27;8.15;;;;;;;;;;4955342;29;20657;-61
2023/08/27 02:19:25;;;;;;;14.82;7.70;;;;;;;;;;4955247;29;20207;-61
2023/08/27 02:21:53;;;;;;;11.88;7.47;;;;;;;;;;4955199;29;20207;-60
2023/08/27 02:24:20;;;;;;;13.20;7.13;;;;;;;;;;4955423;29;20278;-61
2023/08/27 02:26:48;;;;;;;10.55;7.13;;;;;;;;;;4971398;28;20208;-60
2023/08/27 02:29:16;;;;;;;13.07;8.00;;;;;;;;;;4955688;29;20235;-60
2023/08/27 02:31:44;;;;;;;14.85;7.05;;;;;;;;;;4971323;28;20204;-61
2023/08/27 02:34:11;;;;;;;14.32;7.78;;;;;;;;;;4955945;28;20223;-61
2023/08/27 02:36:39;;;;;;;14.07;7.60;;;;;;;;;;4955189;28;20214;-61
2023/08/27 02:39:13;;;;;;;15.40;7.85;;;;;;;;;;4956048;29;20207;-60
2023/08/27 02:41:42;;;;;;;12.52;7.90;;;;;;;;;;4956089;28;20727;-61
2023/08/27 02:44:09;;;;;;;12.98;6.78;;;;;;;;;;4952118;28;20254;-62
2023/08/27 02:46:37;;;;;;;12.38;8.05;;;;;;;;;;4954114;28;20280;-61
2023/08/27 02:49:04;;;;;;;10.93;6.90;;;;;;;;;;4954369;29;20199;-61
2023/08/27 02:51:31;;;;;;;10.43;7.15;;;;;;;;;;4954467;28;20207;-62
2023/08/27 02:53:58;;;;;;;14.27;7.97;;;;;;;;;;4954162;29;20227;-61
2023/08/27 02:56:26;;;;;;;16.65;7.90;;;;;;;;;;4954526;28;20207;-62
2023/08/27 02:58:53;;;;;;;14.57;8.57;;;;;;;;;;4954980;28;20672;-62
2023/08/27 03:01:22;;;;;;;14.85;7.57;;;;;;;;;;4953963;28;20208;-61
2023/08/27 03:03:51;;;;;;;14.57;8.18;;;;;;;;;;4954047;29;20211;-60
2023/08/27 03:06:18;;;;;;;14.20;8.63;;;;;;;;;;4953850;29;20200;-61
2023/08/27 03:08:45;;;;;;;17.52;8.80;;;;;;;;;;4954137;29;20210;-62
2023/08/27 03:11:13;;;;;;;18.70;9.60;;;;;;;;;;4953952;29;20214;-62
2023/08/27 03:13:40;;;;;;;13.10;9.25;;;;;;;;;;4953828;29;20892;-60
2023/08/27 03:16:08;;;;;;;14.57;10.02;;;;;;;;;;4953934;28;20691;-61
2023/08/27 03:18:35;;;;;;;15.68;9.98;;;;;;;;;;4953987;29;20601;-61
2023/08/27 03:21:02;;;;;;;15.32;10.73;;;;;;;;;;4955162;29;20214;-62
2023/08/27 03:23:34;;;;;;;18.05;10.20;;;;;;;;;;4953953;29;20728;-61
2023/08/27 03:26:01;;;;;;;22.58;10.52;;;;;;;;;;4953473;29;20192;-61
2023/08/27 03:28:28;;;;;;;20.25;10.73;;;;;;;;;;4953018;29;20211;-61
2023/08/27 03:30:55;;;;;;;15.80;10.02;;;;;;;;;;4954080;29;20212;-61
2023/08/27 03:33:22;;;;;;;16.00;10.95;;;;;;;;;;4953945;28;20214;-62
2023/08/27 03:35:56;;;;;;;16.33;10.63;;;;;;;;;;4954252;29;20195;-61
2023/08/27 03:38:23;;;;;;;16.38;9.73;;;;;;;;;;4954172;29;20202;-61
2023/08/27 03:40:52;;;;;;;13.90;9.07;;;;;;;;;;4953771;29;20254;-61
2023/08/27 03:43:20;;;;;;;15.10;9.93;;;;;;;;;;4953769;28;20211;-61
2023/08/27 03:45:47;;;;;;;18.27;10.38;;;;;;;;;;4953943;29;20207;-61
2023/08/27 03:48:15;;;;;;;15.70;10.07;;;;;;;;;;4953530;29;20210;-60
2023/08/27 03:50:42;;;;;;;15.90;10.75;;;;;;;;;;4953692;28;20680;-61
2023/08/27 03:53:10;;;;;;;15.60;10.05;;;;;;;;;;4953767;28;20203;-61
2023/08/27 03:55:41;;;;;;;19.77;10.02;;;;;;;;;;4952960;29;20231;-60
2023/08/27 03:58:09;;;;;;;17.80;11.77;;;;;;;;;;4951743;29;20291;-56
2023/08/27 04:00:37;;;;;;;14.93;10.43;;;;;;;;;;4967888;28;20211;-61
2023/08/27 04:03:05;;;;;;;21.25;12.05;;;;;;;;;;4951710;28;20214;-61
2023/08/27 04:05:32;;;;;;;24.58;11.05;;;;;;;;;;4953036;28;20664;-60
2023/08/27 04:08:00;;;;;;;18.98;11.85;;;;;;;;;;4951861;29;20676;-61
2023/08/27 04:10:27;;;;;;;21.40;12.38;;;;;;;;;;4952210;28;20207;-61
2023/08/27 04:12:54;;;;;;;24.02;12.00;;;;;;;;;;4958606;28;20661;-61
2023/08/27 04:15:22;;;;;;;23.05;12.68;;;;;;;;;;4957726;29;20231;-61
2023/08/27 04:17:50;;;;;;;18.02;11.63;;;;;;;;;;4973500;28;20207;-60
2023/08/27 04:20:17;;;;;;;18.50;11.55;;;;;;;;;;4957741;29;20211;-62
2023/08/27 04:22:44;;;;;;;16.70;11.93;;;;;;;;;;4958538;28;20579;-61
2023/08/27 04:25:14;;;;;;;21.67;12.48;;;;;;;;;;4957616;29;20226;-61
2023/08/27 04:27:41;;;;;;;20.20;12.77;;;;;;;;;;4958711;28;20607;-61
2023/08/27 04:30:09;;;;;;;19.60;12.90;;;;;;;;;;4958683;28;20207;-62
2023/08/27 04:32:37;;;;;;;18.92;12.50;;;;;;;;;;4957290;29;20615;-61
2023/08/27 04:35:05;;;;;;;20.88;13.73;;;;;;;;;;4957367;28;20235;-61
2023/08/27 04:37:32;;;;;;;26.33;12.75;;;;;;;;;;4958402;28;20211;-61
2023/08/27 04:39:59;;;;;;;22.35;13.57;;;;;;;;;;4956900;29;20239;-61
2023/08/27 04:42:27;;;;;;;19.73;12.38;;;;;;;;;;4958362;28;20270;-61
2023/08/27 04:44:54;;;;;;;19.48;12.15;;;;;;;;;;4941158;29;20287;-62
2023/08/27 04:47:21;;;;;;;23.75;13.88;;;;;;;;;;4958083;28;20203;-61
2023/08/27 04:49:48;;;;;;;19.10;13.27;;;;;;;;;;4956724;29;20208;-61
2023/08/27 04:52:16;;;;;;;21.58;12.05;;;;;;;;;;4957125;29;20211;-61
2023/08/27 04:54:58;;;;;;;19.80;11.90;;;;;;;;;;4956884;29;20227;-61
2023/08/27 04:57:26;;;;;;;21.55;11.65;;;;;;;;;;4958178;29;20208;-61
2023/08/27 04:59:54;;;;;;;26.90;11.90;;;;;;;;;;4958000;28;20286;-60
2023/08/27 05:02:21;;;;;;;16.33;10.55;;;;;;;;;;4956492;28;20204;-62
2023/08/27 05:04:49;;;;;;;20.02;11.63;;;;;;;;;;4956604;28;20207;-61
2023/08/27 05:07:16;;;;;;;17.75;10.98;;;;;;;;;;4954998;29;20211;-60
2023/08/27 05:09:45;;;;;;;15.07;10.35;;;;;;;;;;4957076;28;20208;-61
2023/08/27 05:12:14;;;;;;;14.55;10.25;;;;;;;;;;4955875;29;20202;-60
2023/08/27 05:14:41;;;;;;;17.20;10.30;;;;;;;;;;4956253;29;20238;-61
2023/08/27 05:17:08;;;;;;;14.80;9.20;;;;;;;;;;4956450;29;20574;-60
2023/08/27 05:19:36;;;;;;;15.73;9.18;;;;;;;;;;4956343;29;20661;-60
2023/08/27 05:22:05;;;;;;;12.82;8.77;;;;;;;;;;4955950;28;20573;-61
2023/08/27 05:24:32;;;;;;;14.57;7.53;;;;;;;;;;4956427;28;20231;-60
2023/08/27 05:27:00;;;;;;;11.00;7.35;;;;;;;;;;4957540;28;20668;-61
2023/08/27 05:29:27;;;;;;;17.42;7.80;;;;;;;;;;4956162;29;20214;-61
2023/08/27 05:31:54;;;;;;;13.20;6.93;;;;;;;;;;4957256;28;20206;-60
2023/08/27 05:34:23;;;;;;;10.20;7.32;;;;;;;;;;4956173;28;20227;-60
2023/08/27 05:36:50;;;;;;;13.20;7.32;;;;;;;;;;4972374;28;20223;-61
2023/08/27 05:39:18;;;;;;;11.88;7.20;;;;;;;;;;4955847;29;20294;-61
2023/08/27 05:41:45;;;;;;;12.45;7.15;;;;;;;;;;4957103;28;20261;-61
2023/08/27 05:44:12;;;;;;;9.63;6.63;;;;;;;;;;4956960;29;20203;-60
2023/08/27 05:46:40;;;;;;;12.25;6.93;;;;;;;;;;4955801;29;20681;-60
2023/08/27 05:49:07;;;;;;;8.45;5.85;;;;;;;;;;4955694;29;20199;-60
2023/08/27 05:51:35;;;;;;;10.88;6.72;;;;;;;;;;4988031;28;20207;-60
2023/08/27 05:54:03;;;;;;;9.93;5.93;;;;;;;;;;4955630;29;20235;-59
2023/08/27 05:56:31;;;;;;;9.68;5.70;;;;;;;;;;4988019;28;20207;-60
2023/08/27 05:58:58;;;;;;;11.88;5.30;;;;;;;;;;4955580;29;20207;-60
2023/08/27 06:01:25;;;;;;;8.82;5.45;;;;;;;;;;4955520;29;20204;-59
2023/08/27 06:03:52;;;;;;;9.23;4.85;;;;;;;;;;4955603;29;20208;-60
2023/08/27 06:06:20;;;;;;;10.45;5.13;;;;;;;;;;4955546;29;20230;-60
2023/08/27 06:08:47;;;;;;;8.90;4.85;;;;;;;;;;4956604;28;20207;-59
2023/08/27 06:11:14;;;;;;;8.30;4.70;;;;;;;;;;4955351;29;20212;-59
2023/08/27 06:13:42;;;;;;;6.78;4.38;;;;;;;;;;4955242;29;20219;-59
2023/08/27 06:16:09;;;;;;;9.23;4.10;;;;;;;;;;4955397;29;20223;-60
2023/08/27 06:18:37;;;;;;;8.07;4.20;;;;;;;;;;4955433;29;20559;-60
2023/08/27 06:21:04;;;;;;;8.10;4.68;;;;;;;;;;4956567;28;20274;-60
2023/08/27 06:23:32;;;;;;;6.90;4.32;;;;;;;;;;4956291;28;20210;-61
2023/08/27 06:26:03;;;;;;;5.30;4.13;;;;;;;;;;4973579;28;20224;-60
2023/08/27 06:28:31;;;;;;;5.53;4.00;;;;;;;;;;4957078;28;20258;-60
2023/08/27 06:30:59;;;;;;;7.88;4.13;;;;;;;;;;4954950;28;20235;-60
2023/08/27 06:33:27;;;;;;;6.93;4.18;;;;;;;;;;4954298;28;20235;-61
2023/08/27 06:35:54;;;;;;;10.55;3.88;;;;;;;;;;4953630;29;20231;-61
2023/08/27 06:38:21;;;;;;;6.88;4.05;;;;;;;;;;4954976;28;20255;-60
2023/08/27 06:40:48;;;;;;;6.75;3.70;;;;;;;;;;4954450;28;20239;-60
2023/08/27 06:43:15;;;;;;;8.40;4.05;;;;;;;;;;4954298;29;20230;-60
2023/08/27 06:45:44;;;;;;;5.70;3.65;;;;;;;;;;4953798;29;20298;-60
2023/08/27 06:48:11;;;;;;;8.05;3.17;;;;;;;;;;4954871;28;20282;-61
2023/08/27 06:50:39;;;;;;;5.70;3.42;;;;;;;;;;4953829;28;20231;-61
2023/08/27 06:53:06;;;;;;;7.93;3.30;;;;;;;;;;4953811;28;20231;-60
2023/08/27 06:55:34;;;;;;;5.93;3.15;;;;;;;;;;4952280;29;20243;-61
2023/08/27 06:58:01;;;;;;;6.90;3.22;;;;;;;;;;4953206;29;20230;-60
2023/08/27 07:00:31;;;;;;;5.97;2.53;;;;;;;;;;4968851;28;20743;-61
2023/08/27 07:02:59;;;;;;;5.32;3.33;;;;;;;;;;4952062;29;20234;-61
2023/08/27 07:05:26;;;;;;;5.68;3.00;;;;;;;;;;4952910;29;20223;-61
2023/08/27 07:07:53;;;;;;;5.53;2.95;;;;;;;;;;4952285;28;20290;-61
2023/08/27 07:10:21;;;;;;;4.50;2.72;;;;;;;;;;4952404;29;20230;-62
2023/08/27 07:12:48;;;;;;;4.40;2.08;;;;;;;;;;4952315;29;20676;-60
2023/08/27 07:15:16;;;;;;;4.00;2.17;;;;;;;;;;4952419;29;20238;-61
2023/08/27 07:17:43;;;;;;;6.45;2.40;;;;;;;;;;4936681;29;20238;-61
2023/08/27 07:20:11;;;;;;;3.78;1.88;;;;;;;;;;4952428;28;20250;-61
2023/08/27 07:22:39;;;;;;;3.97;2.25;;;;;;;;;;4952355;29;20639;-61
2023/08/27 07:25:09;;;;;;;4.30;2.05;;;;;;;;;;4949551;29;20223;-62
2023/08/27 07:27:37;;;;;;;4.70;2.50;;;;;;;;;;4950814;29;20589;-60
2023/08/27 07:30:06;;;;;;;4.70;2.58;;;;;;;;;;4933909;28;20274;-60
2023/08/27 07:32:33;;;;;;;2.72;2.10;;;;;;;;;;4947637;28;20220;-62
2023/08/27 07:35:00;;;;;;;6.63;2.60;;;;;;;;;;4950513;28;20235;-62
2023/08/27 07:37:32;;;;;;;2.83;1.75;;;;;;;;;;4947060;28;20227;-61
2023/08/27 07:40:01;;;;;;;4.28;2.05;;;;;;;;;;4948857;28;20372;-62
2023/08/27 07:42:28;;;;;;;6.07;1.90;;;;;;;;;;4952049;28;20262;-62
2023/08/27 07:44:56;;;;;;;5.90;1.95;;;;;;;;;;4952250;28;20219;-61
2023/08/27 07:47:23;;;;;;;2.42;1.70;;;;;;;;;;4946240;28;20420;-63
2023/08/27 07:49:51;;;;;;;4.25;1.70;;;;;;;;;;4934851;28;20251;-62
2023/08/27 07:52:18;;;;;;;5.03;1.85;;;;;;;;;;4952035;28;20223;-62
2023/08/27 07:54:45;;;;;;;5.75;1.70;;;;;;;;;;4938805;28;20228;-62
2023/08/27 07:57:12;;;;;;;6.82;1.85;;;;;;;;;;4950297;28;20693;-61
2023/08/27 07:59:42;;;;;;;2.90;1.77;;;;;;;;;;4933739;28;20235;-63
2023/08/27 08:02:09;;;;;;;6.20;1.90;;;;;;;;;;4973303;28;20230;-63
2023/08/27 08:04:37;;;;;;;2.50;1.65;;;;;;;;;;4940704;28;20228;-63
2023/08/27 08:07:04;;;;;;;4.53;2.20;;;;;;;;;;4942200;28;20239;-61
2023/08/27 08:09:31;;;;;;;5.90;1.70;;;;;;;;;;4951822;28;20219;-62
2023/08/27 08:11:58;;;;;;;4.05;2.05;;;;;;;;;;4952914;28;20223;-63
2023/08/27 08:14:26;;;;;;;2.70;1.77;;;;;;;;;;4944021;28;20749;-63
2023/08/27 08:16:53;;;;;;;2.28;1.88;;;;;;;;;;4940010;28;20227;-62
2023/08/27 08:19:20;;;;;;;2.85;1.58;;;;;;;;;;4936944;28;20232;-63
2023/08/27 08:21:47;;;;;;;5.55;2.00;;;;;;;;;;4938141;29;20227;-62
2023/08/27 08:24:15;;;;;;;2.78;1.75;;;;;;;;;;4945065;28;20224;-62
2023/08/27 08:26:42;;;;;;;3.08;1.80;;;;;;;;;;4938389;28;20211;-62
2023/08/27 08:29:10;;;;;;;2.00;1.50;;;;;;;;;;4938200;28;20717;-63
2023/08/27 08:31:37;;;;;;;4.25;1.58;;;;;;;;;;4937036;28;20220;-62
2023/08/27 08:34:04;;;;;;;4.78;1.85;;;;;;;;;;4952956;28;20328;-62
2023/08/27 08:36:31;;;;;;;2.67;1.98;;;;;;;;;;4945600;28;20301;-63
2023/08/27 08:39:00;;;;;;;3.08;1.98;;;;;;;;;;4951629;28;20238;-62
2023/08/27 08:41:28;;;;;;;5.47;2.25;;;;;;;;;;4949640;28;20223;-63
2023/08/27 08:44:20;;;;;;;4.03;2.20;;;;;;;;;;4947773;28;20255;-63
2023/08/27 08:46:49;;;;;;;5.65;1.98;;;;;;;;;;4944383;28;20278;-62
2023/08/27 08:49:21;;;;;;;6.32;2.35;;;;;;;;;;4938825;28;20236;-63
2023/08/27 08:51:50;;;;;;;4.85;2.20;;;;;;;;;;4937140;28;20707;-63
2023/08/27 08:54:21;;;;;;;3.63;1.63;;;;;;;;;;4944872;28;20235;-63
2023/08/27 08:56:51;;;;;;;2.95;2.08;;;;;;;;;;4928553;28;20242;-62
2023/08/27 08:59:20;;;;;;;2.05;1.77;;;;;;;;;;4955867;28;20283;-62
2023/08/27 09:01:48;;;;;;;5.72;2.85;;;;;;;;;;4969945;28;20224;-62
2023/08/27 09:04:15;;;;;;;3.83;2.30;;;;;;;;;;4950552;28;20216;-62
2023/08/27 09:06:43;;;;;;;3.65;2.03;;;;;;;;;;4938292;28;20248;-62
2023/08/27 09:09:11;;;;;;;3.58;2.03;;;;;;;;;;4942803;28;20574;-62
2023/08/27 09:11:38;;;;;;;2.67;1.88;;;;;;;;;;4950416;28;20229;-62
2023/08/27 09:14:06;;;;;;;2.58;2.28;;;;;;;;;;4951173;28;20266;-62
2023/08/27 09:16:33;;;;;;;3.25;2.30;;;;;;;;;;4936225;28;20234;-63
2023/08/27 09:19:01;;;;;;;4.45;2.33;;;;;;;;;;4944064;28;20279;-62
2023/08/27 09:21:29;;;;;;;3.08;2.28;;;;;;;;;;4950085;28;20578;-60
2023/08/27 09:23:57;;;;;;;5.93;2.40;;;;;;;;;;4953744;28;20230;-60
2023/08/27 09:26:25;;;;;;;4.38;2.35;;;;;;;;;;4950067;28;20224;-61
2023/08/27 09:28:52;;;;;;;2.53;1.85;;;;;;;;;;4945323;28;20231;-60
2023/08/27 09:31:36;;;;;;;5.90;2.25;;;;;;;;;;4942500;28;20199;-61
2023/08/27 09:34:04;;;;;;;3.22;2.28;;;;;;;;;;4955102;28;20219;-60
2023/08/27 09:36:40;;;;;;;5.47;2.83;;;;;;;;;;4954466;28;20310;-61
2023/08/27 09:39:09;;;;;;;4.63;2.38;;;;;;;;;;4947414;28;20609;-60
2023/08/27 09:41:38;;;;;;;5.45;2.03;;;;;;;;;;4956685;28;20663;-62
2023/08/27 09:44:07;;;;;;;4.38;2.30;;;;;;;;;;4956703;28;20214;-61
2023/08/27 09:46:35;;;;;;;8.25;2.45;;;;;;;;;;4955097;28;20582;-61
2023/08/27 09:49:07;;;;;;;2.97;2.30;;;;;;;;;;4955137;28;20234;-61
2023/08/27 09:51:36;;;;;;;5.05;2.17;;;;;;;;;;4955612;28;20202;-61
2023/08/27 09:54:20;;;;;;;4.45;2.42;;;;;;;;;;4956385;28;20215;-60
2023/08/27 09:56:50;;;;;;;4.82;2.65;;;;;;;;;;4957374;29;20322;-61
2023/08/27 09:59:18;;;;;;;3.97;2.40;;;;;;;;;;4957242;28;20211;-62
2023/08/27 10:01:49;;;;;;;4.05;2.70;;;;;;;;;;4957083;29;20281;-61
2023/08/27 10:04:18;;;;;;;4.07;2.55;;;;;;;;;;4956929;28;20212;-61
2023/08/27 10:06:45;;;;;;;2.80;2.20;;;;;;;;;;4957114;28;20203;-61
2023/08/27 10:09:14;;;;;;;3.70;2.65;;;;;;;;;;4956753;28;20212;-61
2023/08/27 10:11:43;;;;;;;3.63;2.45;;;;;;;;;;4956796;28;20212;-61
2023/08/27 10:14:11;;;;;;;4.25;2.20;;;;;;;;;;4956878;28;20211;-61
2023/08/27 10:16:38;;;;;;;5.70;2.40;;;;;;;;;;4987792;28;20231;-61
2023/08/27 10:19:06;;;;;;;2.85;2.20;;;;;;;;;;4955394;29;20222;-61
2023/08/27 10:21:33;;;;;;;4.82;1.95;;;;;;;;;;4956844;28;20203;-61
2023/08/27 10:24:01;;;;;;;2.38;1.95;;;;;;;;;;4987509;28;20231;-62
2023/08/27 10:26:28;;;;;;;4.72;2.25;;;;;;;;;;4956447;28;20579;-61
2023/08/27 10:28:55;;;;;;;3.33;2.45;;;;;;;;;;4956559;28;20243;-61
2023/08/27 10:31:22;;;;;;;3.90;2.33;;;;;;;;;;4955299;29;20204;-61
2023/08/27 10:33:50;;;;;;;5.53;2.42;;;;;;;;;;4956372;28;20211;-62
2023/08/27 10:36:20;;;;;;;3.20;2.28;;;;;;;;;;4956251;28;20255;-61
2023/08/27 10:38:50;;;;;;;3.67;2.60;;;;;;;;;;4986471;28;20204;-61
2023/08/27 10:41:21;;;;;;;2.90;2.33;;;;;;;;;;4954926;29;20239;-61
2023/08/27 10:43:48;;;;;;;3.65;2.35;;;;;;;;;;4956319;28;20203;-61
2023/08/27 10:46:17;;;;;;;3.92;2.60;;;;;;;;;;4956356;28;20222;-61
2023/08/27 10:48:49;;;;;;;3.05;2.35;;;;;;;;;;4956079;28;20719;-61
2023/08/27 10:51:18;;;;;;;3.38;2.20;;;;;;;;;;4956101;28;20215;-62
2023/08/27 10:53:48;;;;;;;3.42;2.28;;;;;;;;;;4956023;28;20203;-62
2023/08/27 10:56:36;;;;;;;3.58;2.08;;;;;;;;;;4955750;28;20846;-61
2023/08/27 10:59:24;;;;;;;2.88;2.25;;;;;;;;;;4956236;28;20194;-60
2023/08/27 11:02:08;;;;;;;3.05;2.10;;;;;;;;;;4954764;28;20656;-60
2023/08/27 11:04:42;;;;;;;3.15;2.10;;;;;;;;;;4953935;28;20187;-61
2023/08/27 11:07:17;;;;;;;2.63;2.13;;;;;;;;;;4953834;28;20192;-60
2023/08/27 11:09:54;;;;;;;2.40;2.05;;;;;;;;;;4948729;28;20652;-61
2023/08/27 11:12:33;;;;;;;2.28;2.00;;;;;;;;;;4935030;28;20559;-61
2023/08/27 11:15:12;;;;;;;3.63;1.83;;;;;;;;;;4937929;28;20196;-62
2023/08/27 11:17:40;;;;;;;2.60;1.95;;;;;;;;;;4943906;28;20360;-62
2023/08/27 11:20:21;;;;;;;2.17;1.88;;;;;;;;;;4936916;28;20208;-62
2023/08/27 11:23:02;;;;;;;4.13;2.00;;;;;;;;;;4939118;28;20676;-62
2023/08/27 11:25:30;;;;;;;6.63;2.55;;;;;;;;;;4955556;28;20203;-62
2023/08/27 11:28:02;;;;;;;4.03;2.10;;;;;;;;;;4955566;28;20573;-63
2023/08/27 11:30:30;;;;;;;3.25;1.75;;;;;;;;;;4952169;28;20204;-62
2023/08/27 11:32:57;;;;;;;2.55;2.13;;;;;;;;;;4952135;28;20203;-62
2023/08/27 11:35:28;;;;;;;2.78;2.10;;;;;;;;;;4953261;28;20581;-61
2023/08/27 11:37:55;;;;;;;2.22;1.67;;;;;;;;;;4953147;29;20267;-61
2023/08/27 11:40:24;;;;;;;2.90;1.80;;;;;;;;;;4953927;28;21061;-62
2023/08/27 11:42:52;;;;;;;2.47;1.80;;;;;;;;;;4954910;28;20203;-61
2023/08/27 11:45:35;;;;;;;2.63;1.80;;;;;;;;;;4954907;28;20569;-62
2023/08/27 11:48:04;;;;;;;4.10;2.08;;;;;;;;;;4955254;28;20207;-63
2023/08/27 11:50:33;;;;;;;2.05;1.85;;;;;;;;;;4955398;28;20211;-62
2023/08/27 11:53:01;;;;;;;1.98;1.75;;;;;;;;;;4954152;29;20285;-62
2023/08/27 11:55:28;;;;;;;4.00;2.20;;;;;;;;;;4955185;28;20199;-62
2023/08/27 11:57:55;;;;;;;2.80;2.17;;;;;;;;;;4954211;29;20332;-61
2023/08/27 12:00:23;;;;;;;2.85;1.95;;;;;;;;;;4970155;28;20214;-61
2023/08/27 12:02:50;;;;;;;6.43;2.35;;;;;;;;;;4955203;28;20203;-61
2023/08/27 12:05:17;;;;;;;2.97;2.55;;;;;;;;;;4970031;28;20203;-61
2023/08/27 12:07:44;;;;;;;2.83;2.10;;;;;;;;;;4921746;29;20207;-61
2023/08/27 12:10:14;;;;;;;4.05;2.60;;;;;;;;;;4955372;28;20207;-61
2023/08/27 12:12:42;;;;;;;3.42;2.40;;;;;;;;;;4955437;28;20207;-62
2023/08/27 12:15:09;;;;;;;4.18;2.63;;;;;;;;;;4955048;28;20210;-62
2023/08/27 12:17:37;;;;;;;2.65;2.15;;;;;;;;;;4954877;28;20234;-61
2023/08/27 12:20:07;;;;;;;4.63;2.28;;;;;;;;;;4955278;28;20222;-61
2023/08/27 12:22:45;;;;;;;4.15;2.30;;;;;;;;;;4955251;28;20286;-61
2023/08/27 12:25:13;;;;;;;3.20;2.53;;;;;;;;;;4955136;28;20300;-61
2023/08/27 12:27:40;;;;;;;2.58;2.20;;;;;;;;;;4955025;28;20223;-61
2023/08/27 12:30:10;;;;;;;5.13;2.33;;;;;;;;;;4955098;28;20207;-62
2023/08/27 12:32:37;;;;;;;4.03;2.65;;;;;;;;;;4957229;28;20214;-61
2023/08/27 12:35:07;;;;;;;3.17;2.33;;;;;;;;;;4958983;28;20214;-62
2023/08/27 12:37:34;;;;;;;4.00;2.40;;;;;;;;;;4958463;28;20727;-61
2023/08/27 12:40:02;;;;;;;5.28;2.47;;;;;;;;;;4958248;28;20239;-61
2023/08/27 12:42:29;;;;;;;2.75;2.30;;;;;;;;;;4958490;28;20207;-61
2023/08/27 12:44:56;;;;;;;2.85;2.35;;;;;;;;;;4958288;28;20673;-61
2023/08/27 12:47:23;;;;;;;3.85;2.70;;;;;;;;;;4958519;28;20218;-61
2023/08/27 12:49:51;;;;;;;2.50;2.17;;;;;;;;;;4958253;28;20214;-61
2023/08/27 12:52:18;;;;;;;4.40;2.90;;;;;;;;;;4956831;28;20210;-61
2023/08/27 12:54:45;;;;;;;2.60;2.15;;;;;;;;;;4958263;28;20211;-61
2023/08/27 12:57:12;;;;;;;3.78;2.33;;;;;;;;;;4958106;28;20681;-61
2023/08/27 12:59:40;;;;;;;3.67;2.42;;;;;;;;;;4958592;28;20660;-62
2023/08/27 13:02:07;;;;;;;3.22;2.30;;;;;;;;;;4958555;28;20207;-61
2023/08/27 13:04:35;;;;;;;3.67;2.28;;;;;;;;;;4958208;28;20262;-62
2023/08/27 13:07:02;;;;;;;3.72;2.45;;;;;;;;;;4958130;28;20275;-61
2023/08/27 13:09:29;;;;;;;3.17;2.28;;;;;;;;;;4957920;28;20203;-62
2023/08/27 13:11:56;;;;;;;3.25;2.58;;;;;;;;;;4957903;28;20243;-61
2023/08/27 13:14:23;;;;;;;3.15;2.35;;;;;;;;;;4957824;28;20204;-61
2023/08/27 13:16:50;;;;;;;3.92;2.88;;;;;;;;;;4957650;28;20571;-61
2023/08/27 13:19:18;;;;;;;4.03;2.53;;;;;;;;;;4957864;28;20207;-62
2023/08/27 13:21:46;;;;;;;4.00;2.92;;;;;;;;;;4957676;28;20199;-61
2023/08/27 13:24:14;;;;;;;5.40;2.92;;;;;;;;;;4957912;28;20218;-61
2023/08/27 13:26:41;;;;;;;6.28;3.25;;;;;;;;;;4958155;28;20576;-61
2023/08/27 13:29:08;;;;;;;4.18;3.00;;;;;;;;;;4957957;28;20214;-62
2023/08/27 13:31:35;;;;;;;5.38;3.28;;;;;;;;;;4957944;28;20203;-61
2023/08/27 13:34:04;;;;;;;4.15;2.80;;;;;;;;;;4957418;28;20572;-62
2023/08/27 13:36:31;;;;;;;6.50;3.22;;;;;;;;;;4957323;28;20219;-62
2023/08/27 13:38:58;;;;;;;5.50;2.92;;;;;;;;;;4957295;28;20204;-62
2023/08/27 13:41:25;;;;;;;3.28;2.90;;;;;;;;;;4957772;28;20214;-61
2023/08/27 13:43:53;;;;;;;5.63;3.50;;;;;;;;;;4956681;28;20210;-61
2023/08/27 13:46:20;;;;;;;3.42;2.67;;;;;;;;;;4957505;28;20203;-61
2023/08/27 13:48:47;;;;;;;4.90;3.28;;;;;;;;;;4957250;28;20606;-61
2023/08/27 13:51:15;;;;;;;4.32;3.05;;;;;;;;;;4957261;28;20266;-61
2023/08/27 13:53:42;;;;;;;7.07;3.42;;;;;;;;;;4957150;28;20207;-62
2023/08/27 13:56:09;;;;;;;5.20;3.40;;;;;;;;;;4957280;28;20207;-61
2023/08/27 13:58:37;;;;;;;5.55;3.53;;;;;;;;;;4957024;28;20797;-61
2023/08/27 14:01:05;;;;;;;5.28;3.67;;;;;;;;;;4957231;28;20254;-61
2023/08/27 14:03:33;;;;;;;6.15;3.50;;;;;;;;;;4957078;28;20227;-62
2023/08/27 14:06:00;;;;;;;7.15;3.90;;;;;;;;;;4956899;28;20210;-61
2023/08/27 14:08:28;;;;;;;4.30;3.30;;;;;;;;;;4971844;28;20210;-61
2023/08/27 14:10:56;;;;;;;10.77;3.75;;;;;;;;;;4956870;28;20740;-61
2023/08/27 14:13:23;;;;;;;3.78;3.15;;;;;;;;;;4956574;28;20259;-62
2023/08/27 14:15:51;;;;;;;4.72;3.22;;;;;;;;;;4953684;28;20224;-63
2023/08/27 14:18:18;;;;;;;4.90;3.33;;;;;;;;;;4943982;28;20383;-64
2023/08/27 14:20:45;;;;;;;7.75;3.70;;;;;;;;;;4948272;28;20279;-63
2023/08/27 14:23:13;;;;;;;6.50;3.90;;;;;;;;;;4946759;28;20229;-65
2023/08/27 14:25:41;;;;;;;4.53;3.20;;;;;;;;;;4955462;28;20274;-65
2023/08/27 14:28:09;;;;;;;7.70;3.67;;;;;;;;;;4961862;28;20222;-64
2023/08/27 14:30:36;;;;;;;5.15;3.63;;;;;;;;;;4962115;28;20222;-63
2023/08/27 14:33:04;;;;;;;5.80;3.97;;;;;;;;;;4934659;28;20220;-63
2023/08/27 14:35:31;;;;;;;6.88;3.75;;;;;;;;;;4936150;28;20219;-63
2023/08/27 14:37:59;;;;;;;5.43;3.83;;;;;;;;;;4943821;28;20262;-63
2023/08/27 14:40:26;;;;;;;7.10;3.38;;;;;;;;;;4947574;28;20227;-64
2023/08/27 14:42:54;;;;;;;4.47;3.38;;;;;;;;;;4950126;28;20223;-64